This is the latest recevied weather packets stored in our database for station/object W5CRT. If no packets are shown the sender has not sent any weather packets the latest 10 day(s).
| Time | Temp. | Humidity | Pressure | Rain* | Wind** | Luminosity | Snow |
|---|---|---|---|---|---|---|---|
| 1777777118 | 18.33° C | 57% | 1017.7 hPa | 0 mm | - | 0 W/m² | - |
| 1777776816 | 18.33° C | 54% | 1017.7 hPa | 0 mm | - | 0 W/m² | - |
| 1777776513 | 18.89° C | 53% | 1017.5 hPa | 0 mm | - | 0 W/m² | - |
| 1777776209 | 18.89° C | 52% | 1017.6 hPa | 0 mm | - | 0 W/m² | - |
| 1777775906 | 18.89° C | 50% | 1017.6 hPa | 0 mm | - | 0 W/m² | - |
| 1777775604 | 18.89° C | 50% | 1017.3 hPa | 0 mm | - | 0 W/m² | - |
| 1777775300 | 18.89° C | 50% | 1017.3 hPa | 0 mm | - | 0 W/m² | - |
| 1777775000 | 19.44° C | 50% | 1017.3 hPa | 0 mm | - | 0 W/m² | - |
| 1777774697 | 19.44° C | 51% | 1017.2 hPa | 0 mm | - | 0 W/m² | - |
| 1777774393 | 19.44° C | 49% | 1017.1 hPa | 0 mm | - | 0 W/m² | - |
| 1777774091 | 19.44° C | 50% | 1017 hPa | 0 mm | - | 0 W/m² | - |
| 1777773789 | 19.44° C | 51% | 1017.1 hPa | 0 mm | - | 0 W/m² | - |
| 1777772877 | 19.44° C | 54% | 1017.1 hPa | 0 mm | - | 0 W/m² | - |
| 1777771970 | 19.44° C | 51% | 1017 hPa | 0 mm | - | 0 W/m² | - |
| 1777771667 | 20° C | 50% | 1017 hPa | 0 mm | - | 0 W/m² | - |
| 1777771364 | 20° C | 49% | 1016.9 hPa | 0 mm | - | 0 W/m² | - |
| 1777771061 | 20° C | 49% | 1016.7 hPa | 0 mm | - | 1 W/m² | - |
| 1777770758 | 20.56° C | 48% | 1017 hPa | 0 mm | - | 3 W/m² | - |
| 1777770454 | 21.11° C | 48% | 1016.9 hPa | 0 mm | - | 5 W/m² | - |
| 1777770151 | 22.22° C | 46% | 1016.8 hPa | 0 mm | - | 9 W/m² | - |
| 1777768637 | 25° C | 37% | 1016.6 hPa | 0 mm | - | 37 W/m² | - |
| 1777768030 | 25.56° C | 35% | 1016.6 hPa | 0 mm | - | 52 W/m² | - |
| 1777767727 | 25.56° C | 35% | 1016.5 hPa | 0 mm | - | 62 W/m² | - |
| 1777767120 | 25.56° C | 33% | 1016.7 hPa | 0 mm | - | 88 W/m² | - |
| 1777766818 | 25.56° C | 33% | 1016.7 hPa | 0 mm | - | 99 W/m² | - |
* Rain latest hour (hover to see other rain measurements)
** Current wind speed in m/s (hover to see current wind gust speed)